Time;durP1;ratioP1;P1;durP2;ratioP2;P2;SDS_P1;SDS_P2;PMS_P1;PMS_P2;Temp;Humidity;BMP_temperature;BMP_pressure;BME280_temperature;BME280_humidity;BME280_pressure;Samples;Min_cycle;Max_cycle;Signal;HPM_P1;HPM_P2
2022/09/19 00:02:17;;;;;;;6.20;1.45;;;8.30;99.90;;;;;;5074182;28;20460;-67
2022/09/19 00:04:43;;;;;;;7.85;0.82;;;8.30;99.90;;;;;;5074145;28;20033;-67
2022/09/19 00:07:08;;;;;;;10.68;1.20;;;8.30;99.90;;;;;;5073811;28;20130;-67
2022/09/19 00:09:34;;;;;;;4.45;1.23;;;8.30;99.90;;;;;;5074008;28;20031;-67
2022/09/19 00:12:01;;;;;;;15.45;1.25;;;8.30;99.90;;;;;;5073774;28;20477;-67
2022/09/19 00:14:29;;;;;;;8.25;1.15;;;8.30;99.90;;;;;;5073504;28;20095;-67
2022/09/19 00:16:58;;;;;;;7.28;1.05;;;8.30;99.90;;;;;;5073619;28;20021;-67
2022/09/19 00:19:24;;;;;;;10.55;1.20;;;8.30;99.90;;;;;;5073699;28;20144;-67
2022/09/19 00:21:55;;;;;;;15.27;1.10;;;8.30;99.90;;;;;;5073270;28;20031;-67
2022/09/19 00:27:06;;;;;;;10.45;1.58;;;8.30;99.90;;;;;;5073887;28;20146;-67
2022/09/19 00:29:34;;;;;;;11.55;1.48;;;8.30;99.90;;;;;;5073565;28;20032;-67
2022/09/19 00:32:00;;;;;;;14.50;1.70;;;8.40;99.90;;;;;;5073740;28;20033;-67
2022/09/19 00:34:26;;;;;;;9.15;1.85;;;8.40;99.90;;;;;;5073407;28;20020;-67
2022/09/19 00:36:51;;;;;;;14.68;1.52;;;8.50;99.90;;;;;;5072553;28;20431;-67
2022/09/19 00:39:18;;;;;;;7.43;1.70;;;8.50;99.90;;;;;;5073425;28;20492;-67
2022/09/19 00:41:45;;;;;;;12.32;1.83;;;8.60;99.90;;;;;;5072706;28;20040;-67
2022/09/19 00:44:23;;;;;;;12.88;2.28;;;8.60;99.90;;;;;;5073632;28;20029;-67
2022/09/19 00:47:05;;;;;;;15.43;2.20;;;8.60;99.90;;;;;;5073247;28;20081;-67
2022/09/19 00:49:33;;;;;;;11.02;1.60;;;8.60;99.90;;;;;;5073637;28;20028;-67
2022/09/19 00:52:02;;;;;;;13.90;1.98;;;8.60;99.90;;;;;;5073377;28;20108;-67
2022/09/19 00:54:34;;;;;;;11.35;1.98;;;8.50;99.90;;;;;;5072958;28;20016;-67
2022/09/19 00:57:01;;;;;;;5.68;1.50;;;8.40;99.90;;;;;;5073236;28;20033;-67
2022/09/19 00:59:29;;;;;;;15.18;1.88;;;8.30;99.90;;;;;;5073474;28;20029;-67
2022/09/19 01:01:56;;;;;;;13.20;1.80;;;8.20;99.90;;;;;;5072686;28;20105;-67
2022/09/19 01:04:24;;;;;;;4.38;1.30;;;8.10;99.90;;;;;;5073173;28;20143;-67
2022/09/19 01:07:06;;;;;;;8.98;1.70;;;8.00;99.90;;;;;;5072997;28;20029;-67
2022/09/19 01:09:43;;;;;;;6.40;1.25;;;7.80;99.90;;;;;;5073328;28;20028;-67
2022/09/19 01:12:21;;;;;;;7.50;1.60;;;7.70;99.90;;;;;;5073109;28;20017;-67
2022/09/19 01:15:11;;;;;;;17.63;2.30;;;7.60;99.90;;;;;;5073026;28;20096;-67
2022/09/19 01:17:47;;;;;;;4.68;1.20;;;7.60;99.90;;;;;;5072587;28;20019;-67
2022/09/19 01:20:21;;;;;;;10.57;1.38;;;7.50;99.90;;;;;;5073324;28;20067;-67
2022/09/19 01:23:12;;;;;;;8.23;1.50;;;7.40;99.90;;;;;;5073210;28;20082;-67
2022/09/19 01:26:03;;;;;;;12.63;2.35;;;7.30;99.90;;;;;;5072857;28;20096;-67
2022/09/19 01:28:46;;;;;;;10.50;1.73;;;7.30;99.90;;;;;;5072733;28;20029;-67
2022/09/19 01:31:34;;;;;;;11.55;2.00;;;7.30;99.90;;;;;;5072990;28;20050;-67
2022/09/19 01:34:24;;;;;;;7.90;2.42;;;7.30;99.90;;;;;;5072861;28;20074;-67
2022/09/19 01:37:04;;;;;;;9.95;1.60;;;7.30;99.90;;;;;;5072856;28;20024;-67
2022/09/19 01:39:32;;;;;;;7.15;1.67;;;7.20;99.90;;;;;;5073447;28;20028;-67
2022/09/19 01:41:58;;;;;;;10.10;2.05;;;7.10;99.90;;;;;;5072770;28;20070;-67
2022/09/19 01:44:26;;;;;;;11.25;1.85;;;7.20;99.90;;;;;;5072303;28;20027;-67
2022/09/19 01:47:13;;;;;;;17.70;2.30;;;7.30;99.90;;;;;;5073002;28;20497;-67
2022/09/19 01:50:01;;;;;;;18.08;2.30;;;7.40;99.90;;;;;;5076283;28;20032;-67
2022/09/19 01:52:59;;;;;;;27.02;2.20;;;7.50;99.90;;;;;;5075781;28;20017;-67
2022/09/19 01:55:33;;;;;;;18.85;2.50;;;7.60;99.90;;;;;;5076636;28;20016;-67
2022/09/19 01:58:25;;;;;;;18.20;2.38;;;7.50;99.90;;;;;;5076229;28;20012;-67
2022/09/19 02:01:19;;;;;;;23.25;2.63;;;7.60;99.90;;;;;;5076463;28;20032;-67
2022/09/19 02:04:19;;;;;;;26.52;2.97;;;7.60;99.90;;;;;;5067435;28;20550;-67
2022/09/19 02:07:01;;;;;;;12.15;2.45;;;7.70;99.90;;;;;;5076101;28;20054;-67
2022/09/19 02:09:37;;;;;;;13.55;3.15;;;7.70;99.90;;;;;;5076544;28;20066;-67
2022/09/19 02:12:05;;;;;;;23.65;2.78;;;7.70;99.90;;;;;;5076386;28;20025;-67
2022/09/19 02:14:36;;;;;;;15.80;1.98;;;7.60;99.90;;;;;;5075926;28;20029;-68
2022/09/19 02:17:09;;;;;;;18.20;2.53;;;7.70;99.90;;;;;;5076217;28;20052;-67
2022/09/19 02:19:45;;;;;;;17.70;2.95;;;7.60;99.90;;;;;;5076252;28;20028;-67
2022/09/19 02:22:26;;;;;;;18.00;2.75;;;7.50;99.90;;;;;;5076212;28;20388;-67
2022/09/19 02:24:58;;;;;;;19.38;3.67;;;7.50;99.90;;;;;;5075821;28;20090;-67
2022/09/19 02:27:29;;;;;;;19.25;2.63;;;7.50;99.90;;;;;;5075854;28;20041;-67
2022/09/19 02:30:01;;;;;;;21.02;2.25;;;7.50;99.90;;;;;;5075245;28;20518;-67
2022/09/19 02:32:27;;;;;;;13.18;2.20;;;7.50;99.90;;;;;;5075822;28;20480;-67
2022/09/19 02:34:55;;;;;;;21.73;2.83;;;7.40;99.90;;;;;;5075647;28;20489;-67
2022/09/19 02:37:41;;;;;;;17.02;3.25;;;7.40;99.90;;;;;;5075650;28;20115;-67
2022/09/19 02:40:32;;;;;;;19.73;2.47;;;7.50;99.90;;;;;;5075659;28;20016;-67
2022/09/19 02:43:26;;;;;;;19.10;3.15;;;7.50;99.90;;;;;;5075060;28;20054;-67
2022/09/19 02:45:55;;;;;;;21.45;2.60;;;7.50;99.90;;;;;;5075850;28;20074;-67
2022/09/19 02:48:26;;;;;;;18.73;2.58;;;7.60;99.90;;;;;;5082561;22;20508;-68
2022/09/19 02:50:59;;;;;;;22.42;2.85;;;7.50;99.90;;;;;;5035271;28;20034;-68
2022/09/19 02:53:28;;;;;;;16.83;2.97;;;7.60;99.90;;;;;;5035749;28;20092;-68
2022/09/19 02:55:58;;;;;;;28.92;2.40;;;7.70;99.90;;;;;;5035500;28;20021;-68
2022/09/19 02:58:29;;;;;;;21.98;2.60;;;7.70;99.90;;;;;;5034869;28;20469;-69
2022/09/19 03:01:01;;;;;;;23.20;2.88;;;7.80;99.90;;;;;;5035750;28;20029;-69
2022/09/19 03:06:24;;;;;;;33.75;4.25;;;8.00;99.90;;;;;;5020947;28;20029;-68
2022/09/19 03:08:54;;;;;;;30.55;3.78;;;8.10;99.90;;;;;;5015271;28;20022;-69
2022/09/19 03:11:23;;;;;;;29.50;3.53;;;8.30;99.90;;;;;;5015391;28;20373;-69
2022/09/19 03:13:49;;;;;;;26.80;4.43;;;8.40;99.90;;;;;;5015533;28;20400;-69
2022/09/19 03:16:34;;;;;;;47.78;5.85;;;8.60;99.90;;;;;;5015780;28;20022;-69
2022/09/19 03:19:09;;;;;;;51.45;3.85;;;8.60;99.90;;;;;;5015173;28;20025;-68
2022/09/19 03:21:37;;;;;;;39.50;5.10;;;8.60;99.90;;;;;;5015758;28;20101;-68
2022/09/19 03:24:03;;;;;;;31.73;4.35;;;8.60;99.90;;;;;;5014526;28;20022;-68
2022/09/19 03:26:34;;;;;;;25.40;4.43;;;8.60;99.90;;;;;;5015519;28;20022;-69
2022/09/19 03:29:01;;;;;;;38.80;4.82;;;8.50;99.90;;;;;;5015552;28;20245;-69
2022/09/19 03:31:26;;;;;;;27.20;5.35;;;8.50;99.90;;;;;;5014529;28;20117;-68
2022/09/19 03:33:55;;;;;;;27.88;4.28;;;8.40;99.90;;;;;;5015204;28;20074;-68
2022/09/19 03:36:22;;;;;;;31.95;4.43;;;8.40;99.90;;;;;;5015200;28;20026;-68
2022/09/19 03:38:48;;;;;;;27.63;4.15;;;8.40;99.90;;;;;;5014697;28;20018;-68
2022/09/19 03:41:15;;;;;;;25.27;3.65;;;8.40;99.90;;;;;;5014345;28;20029;-69
2022/09/19 03:43:42;;;;;;;40.78;4.03;;;8.40;99.90;;;;;;5015129;28;20033;-69
2022/09/19 03:46:11;;;;;;;30.65;4.43;;;8.40;99.90;;;;;;5014998;28;20478;-69
2022/09/19 03:48:41;;;;;;;41.60;4.63;;;8.30;99.90;;;;;;5013889;28;20037;-68
2022/09/19 03:51:07;;;;;;;34.70;4.93;;;8.30;99.90;;;;;;5014523;28;20041;-68
2022/09/19 03:53:33;;;;;;;39.95;5.35;;;8.30;99.90;;;;;;5014592;28;20014;-68
2022/09/19 03:56:00;;;;;;;30.48;4.03;;;8.40;99.90;;;;;;5014770;28;20018;-68
2022/09/19 03:58:25;;;;;;;28.48;3.13;;;8.50;99.90;;;;;;5014042;28;20022;-68
2022/09/19 04:00:51;;;;;;;32.63;4.47;;;8.50;99.90;;;;;;5014689;28;20374;-68
2022/09/19 04:03:18;;;;;;;42.60;4.55;;;8.40;99.90;;;;;;5014376;28;20050;-68
2022/09/19 04:05:44;;;;;;;35.13;4.32;;;8.40;99.90;;;;;;5013863;28;20022;-69
2022/09/19 04:08:10;;;;;;;37.58;4.10;;;8.40;99.90;;;;;;5014287;28;20018;-69
2022/09/19 04:10:36;;;;;;;29.02;4.68;;;8.40;99.90;;;;;;5014284;28;20462;-69
2022/09/19 04:13:01;;;;;;;33.90;4.93;;;8.40;99.90;;;;;;5014178;28;20433;-69
2022/09/19 04:15:27;;;;;;;30.83;4.07;;;8.40;99.90;;;;;;5013620;28;20021;-69
2022/09/19 04:17:52;;;;;;;36.65;4.60;;;8.40;99.90;;;;;;5014094;28;20026;-69
2022/09/19 04:20:18;;;;;;;37.08;4.93;;;8.40;99.90;;;;;;5014157;28;20026;-68
2022/09/19 04:22:43;;;;;;;20.55;3.60;;;8.40;99.90;;;;;;5013659;28;20030;-68
2022/09/19 04:25:10;;;;;;;40.00;4.47;;;8.30;99.90;;;;;;5014032;28;20424;-68
2022/09/19 04:27:37;;;;;;;24.23;3.28;;;8.40;99.90;;;;;;5015216;28;20022;-68
2022/09/19 04:30:03;;;;;;;29.30;3.53;;;8.30;99.90;;;;;;5014956;28;20018;-68
2022/09/19 04:32:30;;;;;;;30.10;3.40;;;8.30;99.90;;;;;;5013221;28;20047;-68
2022/09/19 04:34:57;;;;;;;25.02;4.03;;;8.20;99.90;;;;;;5013511;28;20053;-68
2022/09/19 04:37:22;;;;;;;23.27;3.88;;;8.20;99.90;;;;;;5014099;28;20022;-68
2022/09/19 04:39:48;;;;;;;19.85;3.03;;;8.10;99.90;;;;;;5014299;28;20037;-68
2022/09/19 04:42:16;;;;;;;17.70;2.83;;;8.10;99.90;;;;;;5013390;28;20029;-68
2022/09/19 04:44:42;;;;;;;23.67;3.92;;;8.00;99.90;;;;;;5013897;28;20502;-68
2022/09/19 04:47:08;;;;;;;37.53;3.35;;;7.90;99.90;;;;;;5013873;28;20030;-68
2022/09/19 04:49:39;;;;;;;19.25;3.30;;;8.00;99.90;;;;;;5013881;28;20488;-68
2022/09/19 04:52:06;;;;;;;27.70;3.13;;;8.00;99.90;;;;;;5012747;28;20366;-68
2022/09/19 04:54:37;;;;;;;44.88;3.97;;;8.00;99.90;;;;;;5014019;28;20015;-68
2022/09/19 04:57:07;;;;;;;22.35;2.80;;;8.00;99.90;;;;;;5013276;28;20022;-68
2022/09/19 04:59:34;;;;;;;18.45;3.20;;;8.00;99.90;;;;;;5013690;28;20029;-68
2022/09/19 05:02:00;;;;;;;18.92;2.97;;;7.90;99.90;;;;;;5018350;28;20413;-68
2022/09/19 05:04:26;;;;;;;41.35;3.63;;;7.90;99.90;;;;;;5024583;28;20026;-68
2022/09/19 05:06:51;;;;;;;23.15;2.53;;;8.00;99.90;;;;;;5013743;28;20041;-68
2022/09/19 05:09:17;;;;;;;16.67;2.72;;;7.90;99.90;;;;;;5013700;28;20466;-68
2022/09/19 05:11:46;;;;;;;39.90;3.55;;;7.90;99.90;;;;;;5013650;28;20112;-68
2022/09/19 05:14:13;;;;;;;24.45;4.35;;;7.90;99.90;;;;;;5013802;28;20025;-68
2022/09/19 05:16:40;;;;;;;26.52;4.25;;;7.80;99.90;;;;;;5017418;28;20049;-68
2022/09/19 05:19:05;;;;;;;25.63;3.35;;;7.90;99.90;;;;;;5032705;28;20390;-68
2022/09/19 05:21:32;;;;;;;29.67;3.80;;;7.90;99.90;;;;;;5033436;28;20025;-68
2022/09/19 05:23:58;;;;;;;29.40;3.70;;;7.90;99.90;;;;;;5037151;28;20018;-68
2022/09/19 05:26:24;;;;;;;27.83;4.28;;;8.00;99.90;;;;;;5036800;28;20041;-68
2022/09/19 05:28:50;;;;;;;20.40;3.38;;;8.00;99.90;;;;;;5037141;28;20029;-68
2022/09/19 05:31:18;;;;;;;18.30;4.13;;;8.00;99.90;;;;;;5037098;28;20017;-68
2022/09/19 05:33:44;;;;;;;14.50;3.08;;;8.00;99.90;;;;;;5024671;28;20033;-68
2022/09/19 05:36:10;;;;;;;26.25;3.53;;;7.90;99.90;;;;;;5016624;28;20382;-68
2022/09/19 05:38:36;;;;;;;23.05;3.58;;;7.90;99.90;;;;;;5017361;28;20021;-68
2022/09/19 05:41:03;;;;;;;20.23;2.95;;;7.90;99.90;;;;;;5017234;28;20030;-68
2022/09/19 05:43:29;;;;;;;15.25;3.20;;;7.80;99.90;;;;;;5017091;28;20500;-68
2022/09/19 05:45:56;;;;;;;14.15;2.45;;;7.80;99.90;;;;;;5016845;28;20030;-68
2022/09/19 05:48:22;;;;;;;15.63;2.88;;;7.80;99.90;;;;;;5016897;28;20044;-68
2022/09/19 05:50:49;;;;;;;13.80;2.72;;;7.80;99.90;;;;;;5016852;28;20462;-68
2022/09/19 05:56:00;;;;;;;33.22;4.78;;;8.00;99.90;;;;;;5017414;28;20044;-68
2022/09/19 05:58:27;;;;;;;32.05;3.95;;;8.30;99.90;;;;;;5014835;28;20474;-68
2022/09/19 06:00:53;;;;;;;30.35;4.90;;;8.50;99.90;;;;;;5016954;28;20021;-68
2022/09/19 06:03:21;;;;;;;28.02;4.45;;;8.60;99.90;;;;;;5016606;28;20057;-68
2022/09/19 06:05:51;;;;;;;35.20;5.38;;;8.70;99.90;;;;;;5016257;28;20049;-68
2022/09/19 06:08:19;;;;;;;26.85;3.80;;;8.80;99.90;;;;;;5016628;28;20500;-68
2022/09/19 06:10:46;;;;;;;42.38;6.10;;;8.90;99.90;;;;;;5016369;28;20437;-68
2022/09/19 06:13:14;;;;;;;25.50;3.88;;;9.10;99.90;;;;;;5016729;28;20026;-68
2022/09/19 06:15:40;;;;;;;29.50;4.65;;;9.20;99.90;;;;;;5015838;28;20026;-68
2022/09/19 06:18:09;;;;;;;22.75;4.00;;;9.20;99.90;;;;;;5016170;28;20072;-68
2022/09/19 06:20:34;;;;;;;23.13;4.20;;;9.40;99.90;;;;;;5016548;28;20068;-68
2022/09/19 06:23:02;;;;;;;29.35;4.75;;;9.50;99.90;;;;;;5015985;28;20029;-68
2022/09/19 06:25:32;;;;;;;18.50;4.40;;;9.80;99.90;;;;;;5016241;28;20029;-68
2022/09/19 06:28:00;;;;;;;26.15;5.50;;;9.90;99.90;;;;;;5016420;28;20030;-68
2022/09/19 06:30:26;;;;;;;45.33;8.43;;;10.10;99.90;;;;;;5016045;28;20422;-68
2022/09/19 06:32:52;;;;;;;33.95;7.07;;;10.20;99.90;;;;;;5016031;28;20029;-68
2022/09/19 06:35:20;;;;;;;50.25;9.10;;;10.40;99.90;;;;;;5014511;28;20033;-68
2022/09/19 06:37:47;;;;;;;41.60;7.38;;;10.40;99.90;;;;;;5015986;28;20053;-68
2022/09/19 06:40:13;;;;;;;41.15;7.30;;;10.50;99.90;;;;;;5016040;28;20024;-68
2022/09/19 06:42:39;;;;;;;48.97;7.15;;;10.50;99.90;;;;;;5015904;28;20022;-68
2022/09/19 06:45:06;;;;;;;33.72;7.45;;;10.50;99.90;;;;;;5016233;28;20612;-68
2022/09/19 06:47:32;;;;;;;46.10;7.70;;;10.60;99.90;;;;;;5015353;28;20124;-68
2022/09/19 06:50:00;;;;;;;31.25;5.05;;;10.70;99.90;;;;;;5015815;28;20108;-68
2022/09/19 06:52:28;;;;;;;39.80;5.78;;;10.80;99.90;;;;;;5016258;28;20048;-68
2022/09/19 06:54:54;;;;;;;46.35;6.47;;;10.90;99.90;;;;;;5016781;28;20022;-68
2022/09/19 06:57:21;;;;;;;48.33;5.82;;;11.00;99.90;;;;;;5016544;28;20068;-68
2022/09/19 06:59:46;;;;;;;60.72;7.25;;;11.10;99.90;;;;;;5015190;28;20034;-68
2022/09/19 07:02:13;;;;;;;46.83;5.55;;;11.30;99.90;;;;;;5015972;28;20030;-68
2022/09/19 07:04:39;;;;;;;61.33;6.32;;;11.50;99.90;;;;;;5015400;28;20028;-68
2022/09/19 07:07:05;;;;;;;55.15;6.97;;;11.60;99.90;;;;;;5014132;28;20113;-68
2022/09/19 07:09:31;;;;;;;46.35;6.43;;;11.80;99.90;;;;;;5015132;28;20034;-68
2022/09/19 07:11:57;;;;;;;53.83;6.75;;;11.90;99.90;;;;;;5015287;28;20409;-68
2022/09/19 07:14:23;;;;;;;54.33;6.00;;;12.00;99.90;;;;;;5027193;28;20032;-68
2022/09/19 07:16:49;;;;;;;60.08;6.15;;;12.10;99.90;;;;;;5033502;28;20029;-68
2022/09/19 07:19:15;;;;;;;59.72;6.85;;;12.20;99.90;;;;;;5019723;28;20394;-68
2022/09/19 07:21:41;;;;;;;54.78;5.88;;;12.30;99.90;;;;;;4996918;28;20026;-68
2022/09/19 07:24:07;;;;;;;58.08;7.53;;;12.50;99.90;;;;;;5015096;28;20026;-68
2022/09/19 07:26:33;;;;;;;60.55;6.28;;;12.50;99.90;;;;;;5015278;28;20029;-68
2022/09/19 07:28:58;;;;;;;53.63;7.60;;;12.70;99.90;;;;;;5014899;28;20133;-68
2022/09/19 07:31:26;;;;;;;65.38;7.70;;;12.70;99.90;;;;;;5014760;28;20018;-68
2022/09/19 07:33:51;;;;;;;57.05;7.05;;;12.80;99.90;;;;;;5014555;28;20030;-68
2022/09/19 07:36:21;;;;;;;36.10;5.07;;;12.90;99.90;;;;;;5015642;28;20096;-68
2022/09/19 07:38:49;;;;;;;43.72;5.30;;;12.90;99.90;;;;;;5014727;28;20022;-68
2022/09/19 07:41:16;;;;;;;48.70;7.07;;;13.10;99.90;;;;;;5014369;28;20390;-68
2022/09/19 07:43:42;;;;;;;45.97;6.15;;;13.20;99.90;;;;;;5015143;28;20364;-68
2022/09/19 07:46:08;;;;;;;44.38;6.75;;;13.20;99.90;;;;;;5014389;28;20026;-68
2022/09/19 07:48:34;;;;;;;49.20;5.88;;;13.30;99.90;;;;;;5022887;28;20035;-68
2022/09/19 07:51:02;;;;;;;31.75;5.40;;;13.40;99.90;;;;;;5033802;28;20065;-68
2022/09/19 07:53:27;;;;;;;37.03;5.10;;;13.60;99.90;;;;;;5034975;28;20033;-68
2022/09/19 07:55:55;;;;;;;36.47;6.28;;;13.80;99.90;;;;;;5021140;28;20025;-68
2022/09/19 07:58:22;;;;;;;30.63;4.30;;;14.10;99.90;;;;;;5014426;28;20599;-68
2022/09/19 08:00:49;;;;;;;30.58;4.60;;;14.20;99.90;;;;;;5014653;28;20037;-68
2022/09/19 08:03:16;;;;;;;28.58;4.05;;;14.40;99.90;;;;;;5013916;28;20520;-68
2022/09/19 08:05:50;;;;;;;19.42;2.65;;;14.50;99.90;;;;;;5014431;28;20470;-68
2022/09/19 08:08:18;;;;;;;21.70;3.10;;;14.50;99.90;;;;;;5014399;28;20033;-68
2022/09/19 08:10:44;;;;;;;19.35;3.15;;;14.60;99.90;;;;;;5014846;28;20112;-68
2022/09/19 08:13:11;;;;;;;28.00;4.47;;;14.70;99.90;;;;;;5013643;28;20524;-68
2022/09/19 08:15:37;;;;;;;15.98;3.63;;;15.00;99.90;;;;;;5014838;28;20026;-68
2022/09/19 08:18:14;;;;;;;13.40;2.20;;;15.30;99.90;;;;;;5014702;28;20026;-68
2022/09/19 08:20:41;;;;;;;24.35;2.08;;;15.50;99.90;;;;;;5014594;28;20109;-70
2022/09/19 08:23:14;;;;;;;15.68;2.20;;;16.00;99.90;;;;;;5013932;28;20588;-70
2022/09/19 08:25:46;;;;;;;14.35;2.50;;;16.40;99.90;;;;;;5014283;28;20056;-70
2022/09/19 08:28:12;;;;;;;11.68;1.80;;;16.70;99.90;;;;;;5013936;28;20029;-69
2022/09/19 08:30:38;;;;;;;16.15;1.48;;;16.90;99.90;;;;;;5014085;28;20072;-70
2022/09/19 08:33:06;;;;;;;6.10;1.50;;;17.10;99.90;;;;;;5014619;28;20026;-70
2022/09/19 08:35:37;;;;;;;4.53;0.95;;;17.30;99.90;;;;;;5013286;28;20117;-69
2022/09/19 08:38:04;;;;;;;6.70;1.25;;;17.40;99.90;;;;;;5014039;28;20443;-69
2022/09/19 08:41:08;;;;;;;4.57;1.15;;;17.40;99.90;;;;;;5014054;28;20022;-68
2022/09/19 08:44:10;;;;;;;7.28;1.10;;;17.50;99.90;;;;;;5013851;28;20034;-68
2022/09/19 08:47:17;;;;;;;5.82;1.20;;;17.40;99.90;;;;;;5013121;28;20045;-68
2022/09/19 08:49:50;;;;;;;5.50;1.15;;;17.40;99.90;;;;;;5014428;28;20029;-69
2022/09/19 08:52:36;;;;;;;9.88;1.60;;;17.20;99.90;;;;;;5013844;28;20045;-69
2022/09/19 08:55:06;;;;;;;8.85;1.05;;;17.20;99.90;;;;;;5013914;28;20084;-69
2022/09/19 08:57:35;;;;;;;7.43;1.52;;;17.30;99.90;;;;;;5012904;28;20076;-69
2022/09/19 09:00:05;;;;;;;2.90;0.73;;;17.40;99.90;;;;;;5013045;28;20156;-69
2022/09/19 09:02:55;;;;;;;3.63;1.02;;;17.40;99.90;;;;;;5013895;28;20029;-69
2022/09/19 09:05:44;;;;;;;12.63;1.65;;;17.60;99.90;;;;;;5013531;28;20083;-69
2022/09/19 09:08:30;;;;;;;8.50;1.10;;;18.00;99.90;;;;;;5013839;28;20022;-69
2022/09/19 09:11:05;;;;;;;4.53;0.90;;;18.10;99.90;;;;;;5013453;28;20426;-69
2022/09/19 09:13:51;;;;;;;8.82;1.85;;;18.40;99.90;;;;;;5013172;28;20101;-69
2022/09/19 09:16:30;;;;;;;7.75;1.25;;;18.70;99.90;;;;;;5013783;28;20029;-69
2022/09/19 09:19:11;;;;;;;6.05;0.70;;;18.40;99.90;;;;;;5013603;28;20026;-69
2022/09/19 09:21:50;;;;;;;1.48;0.40;;;18.00;99.90;;;;;;5015232;28;20370;-69
2022/09/19 09:24:22;;;;;;;1.60;0.65;;;18.00;99.90;;;;;;5013796;28;20053;-69
2022/09/19 09:26:52;;;;;;;1.70;0.73;;;18.00;99.90;;;;;;5013648;28;20021;-69
2022/09/19 09:29:38;;;;;;;6.28;1.05;;;17.90;99.90;;;;;;5013615;28;20080;-69
2022/09/19 09:32:18;;;;;;;12.25;1.30;;;17.70;99.90;;;;;;5013768;28;20057;-68
2022/09/19 09:35:02;;;;;;;9.80;1.10;;;17.60;99.90;;;;;;5013608;28;20030;-69
2022/09/19 09:37:44;;;;;;;5.88;1.10;;;17.50;99.90;;;;;;5013555;28;20032;-69
2022/09/19 09:43:20;;;;;;;6.25;1.05;;;17.00;99.90;;;;;;5013611;28;20152;-69
2022/09/19 09:45:49;;;;;;;5.40;0.88;;;16.80;99.90;;;;;;5013565;28;20041;-68
2022/09/19 09:48:26;;;;;;;2.15;0.50;;;16.70;99.90;;;;;;5013305;28;20520;-68
2022/09/19 09:51:20;;;;;;;6.35;0.77;;;16.40;99.90;;;;;;5013235;28;20034;-68
2022/09/19 09:53:58;;;;;;;7.78;0.95;;;16.30;99.90;;;;;;5020397;28;20397;-69
2022/09/19 09:56:32;;;;;;;6.22;0.90;;;16.10;99.90;;;;;;5033251;28;20028;-69
2022/09/19 10:05:47;;;;;;;8.20;1.70;;;15.90;99.90;;;;;;4940179;29;20039;-68
2022/09/19 10:08:34;;;;;;;4.78;1.55;;;16.00;99.90;;;;;;5027728;28;20046;-68
2022/09/19 10:11:27;;;;;;;8.00;2.15;;;16.10;99.90;;;;;;5036403;28;20389;-68
2022/09/19 10:14:08;;;;;;;8.50;1.58;;;16.10;99.90;;;;;;5020571;28;20076;-69
2022/09/19 10:16:34;;;;;;;6.15;1.15;;;16.20;99.90;;;;;;5016935;28;20018;-69
2022/09/19 10:19:07;;;;;;;4.80;1.27;;;16.00;99.90;;;;;;5016864;28;20116;-68
2022/09/19 10:21:32;;;;;;;5.88;0.65;;;16.00;99.90;;;;;;5016825;28;20018;-68
2022/09/19 10:23:59;;;;;;;13.38;1.88;;;16.00;99.90;;;;;;5016338;28;20024;-68
2022/09/19 10:26:30;;;;;;;6.45;1.48;;;16.10;99.90;;;;;;5015940;28;20057;-69
2022/09/19 10:29:02;;;;;;;10.15;1.10;;;16.30;99.90;;;;;;5021708;28;20018;-69
2022/09/19 10:31:34;;;;;;;9.00;1.40;;;16.70;99.90;;;;;;5036325;28;20021;-68
2022/09/19 10:34:04;;;;;;;13.05;1.23;;;16.80;99.90;;;;;;5036166;28;20017;-69
2022/09/19 10:36:33;;;;;;;11.52;2.35;;;17.10;99.90;;;;;;5035221;28;20071;-68
2022/09/19 10:39:06;;;;;;;6.60;1.20;;;17.40;99.90;;;;;;5035883;28;20068;-68
2022/09/19 10:41:35;;;;;;;10.30;1.38;;;17.30;99.90;;;;;;5033781;28;20026;-69
2022/09/19 10:44:06;;;;;;;10.32;1.67;;;17.40;99.90;;;;;;5035806;28;20031;-69
2022/09/19 10:46:49;;;;;;;10.85;1.90;;;17.60;99.90;;;;;;5022145;28;20504;-69
2022/09/19 10:49:28;;;;;;;8.20;1.67;;;17.60;99.90;;;;;;5033311;28;20087;-68
2022/09/19 10:51:56;;;;;;;3.58;1.13;;;17.90;99.90;;;;;;5035614;28;20091;-69
2022/09/19 10:54:36;;;;;;;6.80;1.30;;;18.10;99.90;;;;;;5036187;28;20022;-69
2022/09/19 10:57:22;;;;;;;11.73;1.50;;;18.10;99.90;;;;;;5034133;28;20485;-68
2022/09/19 10:59:50;;;;;;;4.20;1.00;;;18.10;99.90;;;;;;5035219;28;20041;-69
2022/09/19 11:02:22;;;;;;;4.97;1.02;;;18.30;99.90;;;;;;5034932;28;20029;-69
2022/09/19 11:05:00;;;;;;;7.13;1.38;;;18.10;99.90;;;;;;5030061;28;20026;-69
2022/09/19 11:07:30;;;;;;;8.55;1.10;;;18.10;99.90;;;;;;5015588;28;20061;-69
2022/09/19 11:10:01;;;;;;;1.88;0.65;;;18.10;99.90;;;;;;5015789;28;20018;-69
2022/09/19 11:12:30;;;;;;;3.25;0.52;;;18.20;99.90;;;;;;5015271;28;20186;-69
2022/09/19 11:14:56;;;;;;;4.68;0.98;;;18.30;99.90;;;;;;5015520;28;20041;-69
2022/09/19 11:17:40;;;;;;;3.70;0.98;;;18.30;99.90;;;;;;5015377;28;20478;-69
2022/09/19 11:20:16;;;;;;;9.48;1.35;;;18.30;99.90;;;;;;5015094;28;20061;-69
2022/09/19 11:23:13;;;;;;;4.72;1.13;;;18.20;99.90;;;;;;5015168;28;20037;-69
2022/09/19 11:25:58;;;;;;;10.30;1.55;;;18.30;99.90;;;;;;5015224;28;20084;-69
2022/09/19 11:28:32;;;;;;;5.78;1.52;;;18.40;99.90;;;;;;5015176;28;20080;-69
2022/09/19 11:31:06;;;;;;;;;;;18.30;99.90;;;;;;5015036;28;20058;-69
2022/09/19 11:33:56;;;;;;;6.18;1.00;;;18.40;99.90;;;;;;5015119;28;19956;-69
2022/09/19 11:36:38;;;;;;;10.55;1.63;;;18.50;99.90;;;;;;5015068;28;20386;-69
2022/09/19 11:39:19;;;;;;;17.67;2.42;;;18.70;99.90;;;;;;5015340;28;20028;-69
2022/09/19 11:42:05;;;;;;;18.65;2.03;;;18.60;99.90;;;;;;5014337;28;20025;-69
2022/09/19 11:44:46;;;;;;;19.20;2.30;;;18.50;99.90;;;;;;5015851;28;20501;-69
2022/09/19 11:47:22;;;;;;;19.77;2.20;;;18.20;99.90;;;;;;5016001;28;20401;-69
2022/09/19 11:50:10;;;;;;;12.88;1.70;;;18.10;99.90;;;;;;5014830;28;20036;-69
2022/09/19 11:52:58;;;;;;;11.85;2.45;;;17.90;99.90;;;;;;5015025;28;20500;-69
2022/09/19 11:55:34;;;;;;;9.10;1.75;;;17.80;99.90;;;;;;5014591;28;20018;-69
2022/09/19 11:58:31;;;;;;;20.02;1.98;;;18.30;99.90;;;;;;5014426;28;20046;-69
2022/09/19 12:01:25;;;;;;;12.07;1.38;;;18.50;99.90;;;;;;5014652;28;20030;-69
2022/09/19 12:04:16;;;;;;;12.40;1.00;;;17.90;99.90;;;;;;5013468;28;20029;-69
2022/09/19 12:06:50;;;;;;;6.25;1.17;;;17.60;99.90;;;;;;5014764;28;20092;-69
2022/09/19 12:09:43;;;;;;;2.03;0.77;;;17.90;99.90;;;;;;5014041;28;20460;-69
2022/09/19 12:12:13;;;;;;;4.85;0.73;;;18.90;99.90;;;;;;4984877;28;20037;-69
2022/09/19 12:14:47;;;;;;;1.65;0.60;;;19.60;99.90;;;;;;5014484;28;20022;-69
2022/09/19 12:17:26;;;;;;;5.43;0.30;;;20.10;99.90;;;;;;5014548;28;20025;-69
2022/09/19 12:20:07;;;;;;;4.10;0.55;;;20.40;99.90;;;;;;5014534;28;20033;-69
2022/09/19 12:22:34;;;;;;;1.17;0.45;;;21.00;99.90;;;;;;5013910;28;20022;-69
2022/09/19 12:25:12;;;;;;;1.90;0.30;;;20.90;99.90;;;;;;5015082;28;20415;-69
2022/09/19 12:27:56;;;;;;;0.68;0.20;;;20.70;99.90;;;;;;5014510;28;20034;-69
2022/09/19 12:30:23;;;;;;;1.13;0.15;;;21.10;99.90;;;;;;5012784;28;20026;-69
2022/09/19 12:32:51;;;;;;;1.30;0.40;;;21.60;99.90;;;;;;5013796;28;20536;-69
2022/09/19 12:35:34;;;;;;;0.32;0.20;;;21.70;99.90;;;;;;5014048;28;20030;-69
2022/09/19 12:38:30;;;;;;;0.35;0.17;;;22.20;99.90;;;;;;5014318;28;20025;-69
2022/09/19 12:41:10;;;;;;;0.28;0.20;;;22.10;99.90;;;;;;5013793;28;20041;-69
2022/09/19 12:43:44;;;;;;;1.13;0.30;;;22.00;99.90;;;;;;5013951;28;20061;-69
2022/09/19 12:46:18;;;;;;;0.20;0.20;;;21.70;99.90;;;;;;5014034;28;20034;-69
2022/09/19 12:48:56;;;;;;;3.58;0.52;;;22.00;99.90;;;;;;5013861;28;20040;-69
2022/09/19 12:51:33;;;;;;;0.30;0.30;;;22.20;99.90;;;;;;5013840;28;20366;-69
2022/09/19 12:54:11;;;;;;;2.53;0.40;;;22.40;99.90;;;;;;5013165;28;20409;-69
2022/09/19 12:56:44;;;;;;;1.92;0.30;;;22.30;99.90;;;;;;5014046;28;20026;-69
2022/09/19 12:59:23;;;;;;;2.30;0.70;;;22.70;99.90;;;;;;5013997;28;20021;-69
2022/09/19 13:01:59;;;;;;;3.63;0.80;;;23.00;99.90;;;;;;5013927;28;20022;-69
2022/09/19 13:04:30;;;;;;;3.92;0.73;;;23.10;99.90;;;;;;5014028;28;20073;-69
2022/09/19 13:07:11;;;;;;;3.00;0.75;;;22.20;99.90;;;;;;5013794;28;20105;-69
2022/09/19 13:10:12;;;;;;;2.40;0.60;;;21.80;99.90;;;;;;5028924;28;20026;-69
2022/09/19 13:12:46;;;;;;;10.57;0.47;;;21.70;99.90;;;;;;4970051;28;20073;-69
2022/09/19 13:15:18;;;;;;;;;;;21.50;99.90;;;;;;5013852;28;20108;-69
2022/09/19 13:23:31;;;;;;;0.85;0.30;;;22.30;99.90;;;;;;5014175;28;20088;-68
2022/09/19 13:25:57;;;;;;;0.50;0.40;;;22.10;99.90;;;;;;5013744;28;20101;-69
2022/09/19 13:28:26;;;;;;;1.35;0.30;;;22.20;99.90;;;;;;5013620;28;20033;-69
2022/09/19 13:31:04;;;;;;;4.63;0.40;;;22.10;99.90;;;;;;5012991;28;20114;-69
2022/09/19 13:33:50;;;;;;;1.17;0.40;;;21.90;99.90;;;;;;5013583;28;20029;-69
2022/09/19 13:36:37;;;;;;;2.10;0.70;;;21.80;99.90;;;;;;5013523;28;20030;-69
2022/09/19 13:39:04;;;;;;;2.33;0.47;;;21.70;99.90;;;;;;5012829;28;20132;-69